CDG weather

Charles de Gaulle International Airport
Paris, Île-de-France, France

Public forecast

Using degrees Celsius for public forecast. Weather courtesy of forecast.io.

METAR (pilot weather report)

Retrieved 2017/05/23 20:00 UTC (10 minutes ago):

LFPG 232000Z 32006KT CAVOK 20/14 Q1024 NOSIG

TAF (pilot weather forecast)

Retrieved 2017/05/23 18:24 UTC (2 hours ago):

TAF LFPG 231700Z 2318/2424 32010KT CAVOK BECMG 2402/2404 2000 BR BKN003 PROB40 TEMPO 2404/2406 0800 BCFG BKN002 BECMG 2407/2409 9999 NSW SCT013 BECMG 2410/2412 04005KT TX25/2414Z TN12/2404Z